Time;durP1;ratioP1;P1;durP2;ratioP2;P2;SDS_P1;SDS_P2;PMS_P1;PMS_P2;Temp;Humidity;BMP_temperature;BMP_pressure;BME280_temperature;BME280_humidity;BME280_pressure;Samples;Min_cycle;Max_cycle;Signal;HPM_P1;HPM_P2
2021/03/08 00:02:14;;;;;;;12.80;9.18;;;2.50;91.40;;;;;;5072467;28;20207;-65
2021/03/08 00:04:41;;;;;;;20.33;11.82;;;2.40;92.40;;;;;;5060916;28;20215;-63
2021/03/08 00:07:07;;;;;;;16.58;12.70;;;2.10;94.70;;;;;;5060874;28;20223;-64
2021/03/08 00:09:34;;;;;;;15.77;12.32;;;2.00;95.40;;;;;;5057482;28;20218;-63
2021/03/08 00:12:00;;;;;;;23.58;14.23;;;1.80;96.80;;;;;;5069139;28;20200;-67
2021/03/08 00:14:28;;;;;;;17.35;13.88;;;1.70;97.50;;;;;;5074276;28;20230;-62
2021/03/08 00:16:55;;;;;;;22.30;15.50;;;1.60;98.20;;;;;;5079506;28;20199;-64
2021/03/08 00:19:21;;;;;;;21.42;15.52;;;1.60;98.50;;;;;;5073294;28;20204;-63
2021/03/08 00:21:48;;;;;;;19.70;12.68;;;1.40;99.10;;;;;;5075108;28;20207;-63
2021/03/08 00:24:15;;;;;;;20.48;13.32;;;1.50;99.00;;;;;;5071762;28;20215;-63
2021/03/08 00:26:42;;;;;;;16.35;12.43;;;1.50;99.20;;;;;;5072838;28;20194;-65
2021/03/08 00:29:13;;;;;;;19.92;13.50;;;1.50;99.20;;;;;;5073112;28;20558;-63
2021/03/08 00:31:40;;;;;;;16.13;12.27;;;1.50;99.40;;;;;;5076216;28;20226;-62
2021/03/08 00:34:06;;;;;;;23.02;14.88;;;1.50;99.60;;;;;;5078211;28;20529;-63
2021/03/08 00:36:33;;;;;;;24.05;12.88;;;1.40;99.90;;;;;;5069747;28;20505;-63
2021/03/08 00:38:59;;;;;;;18.27;12.52;;;1.70;99.90;;;;;;5078562;28;20317;-63
2021/03/08 00:41:26;;;;;;;23.80;15.40;;;1.40;99.90;;;;;;5073742;28;20206;-63
2021/03/08 00:43:53;;;;;;;21.33;14.90;;;1.30;99.90;;;;;;5064480;28;20245;-63
2021/03/08 00:46:19;;;;;;;23.15;15.02;;;1.30;99.90;;;;;;5071895;28;20413;-63
2021/03/08 00:48:46;;;;;;;23.55;15.63;;;1.40;99.90;;;;;;5075661;28;20266;-63
2021/03/08 00:51:12;;;;;;;20.20;16.13;;;1.40;99.90;;;;;;5073406;28;20230;-63
2021/03/08 00:53:39;;;;;;;19.27;15.27;;;1.60;99.90;;;;;;5070194;28;20227;-64
2021/03/08 00:56:05;;;;;;;18.70;14.40;;;1.40;99.90;;;;;;5064918;28;20214;-62
2021/03/08 00:58:32;;;;;;;24.95;15.57;;;1.40;99.90;;;;;;5057728;28;20346;-63
2021/03/08 01:00:58;;;;;;;22.25;14.70;;;2.50;99.90;;;;;;5074020;28;20210;-63
2021/03/08 01:03:25;;;;;;;22.70;14.80;;;1.40;99.90;;;;;;5069784;28;20218;-64
2021/03/08 01:05:52;;;;;;;23.30;17.45;;;1.70;99.90;;;;;;5075561;28;20560;-63
2021/03/08 01:08:19;;;;;;;23.10;17.67;;;1.40;99.90;;;;;;5076031;28;20211;-63
2021/03/08 01:10:48;;;;;;;28.20;17.90;;;1.40;99.90;;;;;;5070374;28;20207;-63
2021/03/08 01:13:15;;;;;;;25.60;19.02;;;1.30;99.90;;;;;;5072580;28;20297;-63
2021/03/08 01:15:42;;;;;;;25.85;18.33;;;1.30;99.90;;;;;;5074017;28;20207;-63
2021/03/08 01:18:08;;;;;;;25.17;18.27;;;1.40;99.90;;;;;;5077056;28;20206;-63
2021/03/08 01:20:35;;;;;;;27.75;17.48;;;1.50;99.90;;;;;;5050349;28;20304;-64
2021/03/08 01:23:02;;;;;;;22.92;18.25;;;1.70;99.90;;;;;;5070547;28;20204;-63
2021/03/08 01:25:29;;;;;;;22.92;15.65;;;1.70;99.90;;;;;;5066304;28;20551;-63
2021/03/08 01:27:59;;;;;;;23.23;16.60;;;1.60;99.90;;;;;;5072954;28;20398;-64
2021/03/08 01:30:33;;;;;;;28.45;17.92;;;1.60;99.90;;;;;;5072930;28;20213;-64
2021/03/08 01:33:00;;;;;;;23.13;17.70;;;1.40;99.90;;;;;;5077373;28;20230;-64
2021/03/08 01:35:27;;;;;;;28.67;18.92;;;1.50;99.90;;;;;;5073181;28;20199;-63
2021/03/08 01:37:53;;;;;;;23.00;16.35;;;1.40;99.90;;;;;;5074585;28;20207;-63
2021/03/08 01:40:22;;;;;;;27.65;17.75;;;1.40;99.90;;;;;;5053860;28;20207;-63
2021/03/08 01:42:49;;;;;;;27.35;18.65;;;1.50;99.90;;;;;;5074972;28;20234;-63
2021/03/08 01:45:17;;;;;;;23.00;16.88;;;1.50;99.90;;;;;;5069867;28;20224;-63
2021/03/08 01:47:46;;;;;;;25.50;16.55;;;1.50;99.90;;;;;;5076680;28;20508;-63
2021/03/08 01:50:46;;;;;;;25.65;17.92;;;1.50;99.90;;;;;;5068620;28;20390;-64
2021/03/08 01:53:17;;;;;;;21.48;16.73;;;1.60;99.90;;;;;;5069543;28;20257;-64
2021/03/08 01:55:45;;;;;;;28.85;18.27;;;1.50;99.90;;;;;;5070732;28;20306;-63
2021/03/08 01:58:12;;;;;;;28.35;18.75;;;1.50;99.90;;;;;;5070566;28;20206;-63
2021/03/08 02:00:40;;;;;;;27.40;18.27;;;1.50;99.90;;;;;;5070929;28;20207;-63
2021/03/08 02:03:06;;;;;;;23.50;16.83;;;1.50;99.90;;;;;;5070656;28;20493;-63
2021/03/08 02:05:37;;;;;;;30.77;19.73;;;1.60;99.90;;;;;;5064771;28;20506;-63
2021/03/08 02:08:06;;;;;;;29.40;20.45;;;1.60;99.90;;;;;;5077225;28;20217;-63
2021/03/08 02:10:35;;;;;;;29.52;20.30;;;1.50;99.90;;;;;;5071126;28;20235;-63
2021/03/08 02:13:23;;;;;;;33.35;20.65;;;1.50;99.90;;;;;;5063772;28;20256;-63
2021/03/08 02:15:56;;;;;;;26.13;18.35;;;1.50;99.90;;;;;;5074547;28;20203;-63
2021/03/08 02:18:39;;;;;;;29.42;21.70;;;1.50;99.90;;;;;;5075117;28;20203;-63
2021/03/08 02:21:16;;;;;;;30.60;19.25;;;1.50;99.90;;;;;;5077243;28;20293;-63
2021/03/08 02:24:21;;;;;;;28.38;20.63;;;1.50;99.90;;;;;;5071498;28;20500;-63
2021/03/08 02:27:03;;;;;;;30.38;19.40;;;1.40;99.90;;;;;;5069857;28;20203;-63
2021/03/08 02:29:50;;;;;;;33.90;24.38;;;1.50;99.90;;;;;;5076007;28;20408;-64
2021/03/08 02:32:24;;;;;;;35.25;22.13;;;1.50;99.90;;;;;;5076078;28;20237;-63
2021/03/08 02:35:12;;;;;;;27.45;20.60;;;1.50;99.90;;;;;;5067384;28;20229;-63
2021/03/08 02:37:46;;;;;;;29.83;21.48;;;1.50;99.90;;;;;;5077881;28;20648;-64
2021/03/08 02:40:18;;;;;;;36.60;22.80;;;1.60;99.90;;;;;;5074718;28;20202;-64
2021/03/08 02:42:51;;;;;;;31.65;23.27;;;1.70;99.90;;;;;;5076514;28;20412;-66
2021/03/08 02:45:20;;;;;;;32.67;22.20;;;1.70;99.90;;;;;;5067788;28;20381;-64
2021/03/08 02:47:48;;;;;;;35.33;23.38;;;1.70;99.90;;;;;;5076284;28;20727;-63
2021/03/08 02:50:17;;;;;;;32.92;24.50;;;1.70;99.90;;;;;;5074649;28;20211;-63
2021/03/08 02:52:54;;;;;;;41.22;26.10;;;1.60;99.90;;;;;;5072783;28;20207;-64
2021/03/08 02:55:24;;;;;;;39.38;25.75;;;1.50;99.90;;;;;;5044169;28;20217;-63
2021/03/08 02:57:52;;;;;;;46.00;27.88;;;1.40;99.90;;;;;;5076188;28;20246;-64
2021/03/08 03:00:19;;;;;;;49.30;30.63;;;1.40;99.90;;;;;;5075713;28;20213;-63
2021/03/08 03:02:47;;;;;;;45.28;27.48;;;1.40;99.90;;;;;;5064864;28;20209;-63
2021/03/08 03:05:15;;;;;;;41.97;26.10;;;1.50;99.90;;;;;;5056272;28;20737;-64
2021/03/08 03:07:46;;;;;;;38.13;24.90;;;1.50;99.90;;;;;;5072325;28;20451;-64
2021/03/08 03:10:14;;;;;;;48.13;27.95;;;1.50;99.90;;;;;;5075828;28;20619;-65
2021/03/08 03:12:42;;;;;;;49.20;28.80;;;1.50;99.90;;;;;;5057770;28;20760;-64
2021/03/08 03:15:11;;;;;;;48.13;28.15;;;1.50;99.90;;;;;;5075476;28;20244;-65
2021/03/08 03:17:39;;;;;;;44.33;26.45;;;1.50;99.90;;;;;;5076435;28;20282;-63
2021/03/08 03:20:11;;;;;;;54.78;30.23;;;1.60;99.90;;;;;;5075486;28;20417;-64
2021/03/08 03:22:40;;;;;;;43.88;27.67;;;1.60;99.90;;;;;;5076688;28;20211;-64
2021/03/08 03:25:08;;;;;;;51.25;30.05;;;1.60;99.90;;;;;;5075067;28;20214;-65
2021/03/08 03:27:36;;;;;;;52.42;28.33;;;2.20;99.90;;;;;;5076452;28;20207;-63
2021/03/08 03:30:06;;;;;;;52.95;29.17;;;1.60;99.90;;;;;;5075655;28;20214;-65
2021/03/08 03:32:33;;;;;;;42.55;28.60;;;1.50;99.90;;;;;;5075888;28;20221;-64
2021/03/08 03:35:00;;;;;;;53.45;28.77;;;1.60;99.90;;;;;;5075942;28;20230;-65
2021/03/08 03:37:27;;;;;;;42.45;26.40;;;1.70;99.90;;;;;;5070382;28;20210;-64
2021/03/08 03:39:54;;;;;;;45.53;26.30;;;1.70;99.90;;;;;;5065736;28;20222;-66
2021/03/08 03:42:21;;;;;;;40.05;27.45;;;1.70;99.90;;;;;;5074620;28;20211;-64
2021/03/08 03:44:47;;;;;;;41.47;26.45;;;1.70;99.90;;;;;;5069590;28;20242;-65
2021/03/08 03:47:14;;;;;;;37.90;24.90;;;1.80;99.90;;;;;;5065100;28;20208;-65
2021/03/08 03:49:42;;;;;;;36.17;24.08;;;1.80;99.90;;;;;;5071893;28;20214;-66
2021/03/08 03:52:09;;;;;;;39.10;25.92;;;1.90;99.90;;;;;;5059293;28;20203;-65
2021/03/08 03:54:36;;;;;;;38.80;25.85;;;1.80;99.90;;;;;;5059928;28;20232;-64
2021/03/08 03:57:06;;;;;;;31.33;20.80;;;1.80;99.90;;;;;;5059220;28;20758;-65
2021/03/08 03:59:49;;;;;;;30.65;21.23;;;1.70;99.90;;;;;;5059023;28;20215;-64
2021/03/08 04:02:22;;;;;;;31.75;23.27;;;1.70;99.90;;;;;;5059960;28;20261;-65
2021/03/08 04:04:55;;;;;;;35.75;21.20;;;1.60;99.90;;;;;;5059558;28;20227;-64
2021/03/08 04:07:22;;;;;;;31.42;22.67;;;1.70;99.90;;;;;;5058799;28;20513;-65
2021/03/08 04:09:51;;;;;;;29.25;21.10;;;1.80;99.90;;;;;;5058641;28;20511;-64
2021/03/08 04:12:38;;;;;;;35.92;20.35;;;1.80;99.90;;;;;;5059216;28;20222;-64
2021/03/08 04:15:07;;;;;;;34.25;19.98;;;1.80;99.90;;;;;;5064584;28;20262;-65
2021/03/08 04:17:40;;;;;;;31.98;19.38;;;1.70;99.90;;;;;;5072902;28;20207;-63
2021/03/08 04:20:15;;;;;;;34.88;23.25;;;1.70;99.90;;;;;;5078343;28;20237;-64
2021/03/08 04:22:47;;;;;;;38.00;24.20;;;1.60;99.90;;;;;;5061945;28;20207;-65
2021/03/08 04:25:17;;;;;;;34.72;23.10;;;1.60;99.90;;;;;;5061126;28;20217;-64
2021/03/08 04:27:46;;;;;;;33.13;20.05;;;1.50;99.90;;;;;;5078732;28;20213;-65
2021/03/08 04:30:14;;;;;;;33.78;23.65;;;1.60;99.90;;;;;;5077664;28;20213;-65
2021/03/08 04:32:41;;;;;;;37.30;21.45;;;1.50;99.90;;;;;;5079088;28;20390;-65
2021/03/08 04:35:10;;;;;;;36.25;22.88;;;1.40;99.90;;;;;;5078580;28;20227;-65
2021/03/08 04:37:39;;;;;;;38.45;23.00;;;1.50;99.90;;;;;;5079359;28;20207;-65
2021/03/08 04:40:12;;;;;;;41.08;19.90;;;1.70;99.90;;;;;;5075649;28;20275;-65
2021/03/08 04:42:41;;;;;;;35.30;20.38;;;1.70;99.90;;;;;;5070897;28;20207;-64
2021/03/08 04:45:09;;;;;;;34.20;22.73;;;1.70;99.90;;;;;;5066195;28;20310;-65
2021/03/08 04:47:37;;;;;;;36.60;20.77;;;1.70;99.90;;;;;;5049393;28;20226;-64
2021/03/08 04:50:07;;;;;;;33.85;21.80;;;1.60;99.90;;;;;;5078551;28;20338;-66
2021/03/08 04:52:35;;;;;;;32.85;21.02;;;1.60;99.90;;;;;;5075804;28;20211;-65
2021/03/08 04:55:02;;;;;;;32.83;22.10;;;1.60;99.90;;;;;;5078024;28;20222;-65
2021/03/08 04:57:31;;;;;;;36.47;21.25;;;1.70;99.90;;;;;;5075281;28;20207;-67
2021/03/08 04:59:57;;;;;;;29.15;20.48;;;1.70;99.90;;;;;;5075760;28;20203;-66
2021/03/08 05:02:38;;;;;;;30.38;21.02;;;1.60;99.90;;;;;;5071727;28;20453;-66
2021/03/08 05:05:08;;;;;;;33.05;21.42;;;1.70;99.90;;;;;;5075873;28;20375;-65
2021/03/08 05:07:38;;;;;;;30.40;21.08;;;1.70;99.90;;;;;;5071648;28;20203;-65
2021/03/08 05:10:08;;;;;;;36.47;23.42;;;1.70;99.90;;;;;;5075185;28;20221;-66
2021/03/08 05:12:38;;;;;;;34.42;19.50;;;1.60;99.90;;;;;;5071971;28;20210;-66
2021/03/08 05:15:07;;;;;;;35.60;21.65;;;1.50;99.90;;;;;;5077401;28;20235;-67
2021/03/08 05:17:35;;;;;;;38.55;22.65;;;1.60;99.90;;;;;;5060261;28;20412;-67
2021/03/08 05:20:06;;;;;;;33.10;20.25;;;1.50;99.90;;;;;;5077879;28;20206;-67
2021/03/08 05:22:35;;;;;;;33.03;21.42;;;1.50;99.90;;;;;;5077589;28;20273;-66
2021/03/08 05:25:04;;;;;;;39.92;23.70;;;1.40;99.90;;;;;;5077313;28;20206;-67
2021/03/08 05:27:31;;;;;;;34.38;22.10;;;1.20;99.90;;;;;;5060349;28;20219;-66
2021/03/08 05:29:59;;;;;;;32.10;21.52;;;1.20;99.90;;;;;;5076987;28;20214;-67
2021/03/08 05:32:29;;;;;;;41.92;21.17;;;1.20;99.90;;;;;;5059587;28;20478;-66
2021/03/08 05:34:58;;;;;;;35.58;22.15;;;1.20;99.90;;;;;;5062553;28;20238;-66
2021/03/08 05:37:26;;;;;;;33.67;21.80;;;1.10;99.90;;;;;;5077594;28;20274;-66
2021/03/08 05:39:55;;;;;;;38.85;23.42;;;1.10;99.90;;;;;;5065842;28;20206;-67
2021/03/08 05:42:25;;;;;;;37.15;24.88;;;1.00;99.90;;;;;;5077148;28;20236;-67
2021/03/08 05:44:57;;;;;;;37.33;21.45;;;1.00;99.90;;;;;;5066357;28;20258;-67
2021/03/08 05:47:34;;;;;;;30.35;20.48;;;1.00;99.90;;;;;;5066039;28;20230;-67
2021/03/08 05:50:39;;;;;;;32.85;20.98;;;1.10;99.90;;;;;;5073884;28;20241;-66
2021/03/08 05:53:34;;;;;;;29.10;19.23;;;1.00;99.90;;;;;;5071275;28;20224;-67
2021/03/08 05:56:32;;;;;;;28.85;18.10;;;0.90;99.90;;;;;;5058335;28;20211;-67
2021/03/08 05:59:16;;;;;;;27.55;16.65;;;0.90;99.90;;;;;;5071661;28;20199;-67
2021/03/08 06:02:11;;;;;;;30.75;17.33;;;1.00;99.90;;;;;;5068395;28;20218;-66
2021/03/08 06:04:57;;;;;;;26.48;17.17;;;1.00;99.90;;;;;;5072903;28;20412;-66
2021/03/08 06:08:01;;;;;;;27.83;17.73;;;1.00;99.90;;;;;;5067673;28;20210;-66
2021/03/08 06:10:34;;;;;;;21.88;15.00;;;1.00;99.90;;;;;;5070211;28;20222;-66
2021/03/08 06:13:09;;;;;;;27.33;15.38;;;0.90;99.90;;;;;;5071919;28;20206;-66
2021/03/08 06:15:37;;;;;;;24.75;14.95;;;1.00;99.90;;;;;;5073785;28;20238;-65
2021/03/08 06:18:08;;;;;;;22.00;14.40;;;1.00;99.90;;;;;;5075316;28;20278;-66
2021/03/08 06:20:35;;;;;;;19.73;16.10;;;1.00;99.90;;;;;;5077217;28;20514;-67
2021/03/08 06:23:03;;;;;;;24.33;12.93;;;1.40;99.90;;;;;;5058558;28;20501;-67
2021/03/08 06:25:30;;;;;;;19.67;11.82;;;1.10;99.90;;;;;;5076291;28;20214;-67
2021/03/08 06:27:57;;;;;;;22.23;14.15;;;1.10;99.90;;;;;;5077342;28;20221;-66
2021/03/08 06:30:24;;;;;;;24.92;13.32;;;1.30;99.90;;;;;;5075069;28;20203;-66
2021/03/08 06:32:51;;;;;;;14.00;10.90;;;1.80;99.90;;;;;;5076774;28;20627;-66
2021/03/08 06:35:18;;;;;;;14.85;12.30;;;2.20;99.10;;;;;;5071339;28;20230;-68
2021/03/08 06:37:46;;;;;;;14.80;10.82;;;2.50;98.10;;;;;;5076154;28;20207;-67
2021/03/08 06:40:15;;;;;;;12.75;9.55;;;2.30;98.00;;;;;;5046766;28;20303;-67
2021/03/08 06:42:43;;;;;;;15.73;9.68;;;2.30;98.30;;;;;;5076001;28;20229;-68
2021/03/08 06:45:10;;;;;;;16.52;10.05;;;2.30;97.80;;;;;;5074865;28;20235;-67
2021/03/08 06:47:37;;;;;;;14.77;9.88;;;2.30;98.10;;;;;;5076167;28;20289;-66
2021/03/08 06:50:04;;;;;;;16.90;10.93;;;2.80;97.10;;;;;;5075775;28;20235;-67
2021/03/08 06:52:42;;;;;;;8.63;7.78;;;3.00;96.70;;;;;;5070027;28;20236;-69
2021/03/08 06:55:09;;;;;;;9.35;7.55;;;2.50;95.50;;;;;;5073620;28;20568;-68
2021/03/08 06:57:37;;;;;;;15.15;7.90;;;3.20;96.00;;;;;;5070367;28;20212;-68
2021/03/08 07:00:13;;;;;;;8.15;7.25;;;3.60;94.40;;;;;;5076682;28;20215;-69
2021/03/08 07:02:40;;;;;;;10.98;7.75;;;4.30;93.30;;;;;;5069686;28;21503;-70
2021/03/08 07:05:12;;;;;;;27.52;8.10;;;4.50;93.50;;;;;;5073912;28;20511;-70
2021/03/08 07:07:51;;;;;;;9.20;7.53;;;4.50;92.90;;;;;;5070421;28;20203;-71
2021/03/08 07:10:29;;;;;;;10.32;7.82;;;5.10;91.80;;;;;;5065362;28;20214;-71
2021/03/08 07:12:56;;;;;;;7.63;6.85;;;6.30;90.40;;;;;;5072810;28;20758;-70
2021/03/08 07:15:23;;;;;;;7.80;7.00;;;6.20;87.40;;;;;;5074127;28;20336;-70
2021/03/08 07:17:50;;;;;;;10.00;6.50;;;6.00;86.80;;;;;;5061825;28;20207;-70
2021/03/08 07:20:18;;;;;;;9.18;7.43;;;5.70;89.30;;;;;;5072945;28;20405;-69
2021/03/08 07:22:49;;;;;;;12.30;6.85;;;6.20;87.10;;;;;;5073243;28;20206;-71
2021/03/08 07:25:32;;;;;;;10.93;6.88;;;6.20;85.50;;;;;;5078890;28;20203;-70
2021/03/08 07:28:01;;;;;;;7.53;5.80;;;7.10;87.40;;;;;;5079992;28;20213;-70
2021/03/08 07:30:37;;;;;;;9.55;7.60;;;8.30;79.20;;;;;;5066687;28;20572;-70
2021/03/08 07:33:06;;;;;;;12.63;7.80;;;9.20;76.70;;;;;;5079283;28;20232;-70
2021/03/08 07:35:39;;;;;;;8.88;7.97;;;9.80;73.00;;;;;;5067567;28;20230;-70
2021/03/08 07:38:08;;;;;;;9.85;7.95;;;9.20;72.90;;;;;;5066255;28;20208;-71
2021/03/08 07:40:36;;;;;;;9.80;7.95;;;8.40;76.70;;;;;;5057733;28;20516;-71
2021/03/08 07:43:03;;;;;;;10.52;7.50;;;8.10;80.70;;;;;;5054102;28;20247;-71
2021/03/08 07:45:41;;;;;;;12.05;7.68;;;8.00;79.60;;;;;;5074169;28;20271;-70
2021/03/08 07:48:14;;;;;;;11.98;8.52;;;7.20;80.90;;;;;;5071438;28;20205;-72
2021/03/08 07:50:43;;;;;;;9.63;7.88;;;6.70;83.80;;;;;;5064041;28;20210;-70
2021/03/08 07:53:28;;;;;;;12.13;9.90;;;5.90;87.50;;;;;;5068312;28;20571;-72
2021/03/08 07:56:03;;;;;;;10.95;7.97;;;4.90;90.20;;;;;;5058610;28;20267;-72
2021/03/08 07:58:35;;;;;;;14.18;9.85;;;4.30;91.50;;;;;;5069972;28;20206;-73
2021/03/08 08:01:11;;;;;;;12.70;9.48;;;4.10;92.50;;;;;;5058781;28;20205;-71
2021/03/08 08:03:39;;;;;;;7.25;5.63;;;4.20;91.60;;;;;;5069961;28;20228;-76
2021/03/08 08:06:08;;;;;;;10.77;8.27;;;3.90;91.50;;;;;;5073814;28;20400;-72
2021/03/08 08:08:37;;;;;;;11.68;9.73;;;3.80;93.80;;;;;;5074571;28;20206;-73
2021/03/08 08:11:06;;;;;;;10.90;7.80;;;4.00;92.70;;;;;;5070929;28;20211;-73
2021/03/08 08:13:35;;;;;;;15.43;9.90;;;4.00;92.10;;;;;;5073456;28;20206;-75
2021/03/08 08:16:13;;;;;;;14.68;8.25;;;4.10;93.00;;;;;;5073937;28;20260;-74
2021/03/08 08:18:44;;;;;;;10.85;6.65;;;4.40;92.30;;;;;;5079279;28;20205;-74
2021/03/08 08:21:15;;;;;;;12.98;7.90;;;4.20;92.70;;;;;;5069834;28;20500;-74
2021/03/08 08:23:45;;;;;;;11.57;7.55;;;4.20;92.70;;;;;;5054162;28;20213;-74
2021/03/08 08:26:19;;;;;;;11.65;9.18;;;4.00;93.50;;;;;;5065300;28;20232;-74
2021/03/08 08:28:47;;;;;;;13.95;8.50;;;4.90;93.00;;;;;;5057675;28;20218;-74
2021/03/08 08:31:14;;;;;;;10.00;8.90;;;6.40;86.60;;;;;;5077195;28;20388;-74
2021/03/08 08:33:41;;;;;;;14.55;10.55;;;5.60;87.60;;;;;;5076452;28;20246;-73
2021/03/08 08:36:25;;;;;;;12.93;9.50;;;4.50;91.10;;;;;;5078076;28;20253;-74
2021/03/08 08:38:56;;;;;;;16.80;9.40;;;3.80;92.90;;;;;;5068072;28;20408;-74
2021/03/08 08:41:28;;;;;;;14.57;10.18;;;4.40;92.00;;;;;;5075471;28;20216;-73
2021/03/08 08:44:08;;;;;;;10.00;8.45;;;4.30;91.80;;;;;;5077762;28;20328;-73
2021/03/08 08:46:40;;;;;;;9.65;8.65;;;4.10;91.50;;;;;;5057971;28;20226;-76
2021/03/08 08:49:13;;;;;;;14.27;9.82;;;4.40;91.60;;;;;;5056957;28;20207;-72
2021/03/08 08:51:50;;;;;;;13.45;9.63;;;4.40;91.00;;;;;;5076489;28;20504;-71
2021/03/08 08:54:52;;;;;;;11.65;8.50;;;4.40;91.80;;;;;;5076570;28;20588;-73
2021/03/08 08:57:20;;;;;;;8.35;7.32;;;4.40;90.60;;;;;;5067495;28;20205;-71
2021/03/08 09:00:15;;;;;;;17.08;7.80;;;4.40;89.90;;;;;;5060370;28;20213;-71
2021/03/08 09:02:42;;;;;;;7.55;6.57;;;5.50;85.90;;;;;;5071752;28;20207;-71
2021/03/08 09:05:28;;;;;;;8.25;6.30;;;5.50;81.40;;;;;;5074485;28;20226;-71
2021/03/08 09:08:23;;;;;;;15.98;9.70;;;5.40;83.80;;;;;;5076829;28;20203;-71
2021/03/08 09:10:50;;;;;;;15.00;9.40;;;7.60;77.80;;;;;;5074559;28;20203;-73
2021/03/08 09:13:17;;;;;;;12.18;8.95;;;7.80;78.10;;;;;;5075050;28;20238;-71
2021/03/08 09:15:43;;;;;;;18.05;15.13;;;6.70;80.50;;;;;;5057544;28;20566;-70
2021/03/08 09:18:12;;;;;;;15.32;12.80;;;5.60;86.20;;;;;;5073512;28;20251;-71
2021/03/08 09:20:42;;;;;;;13.65;9.02;;;6.40;87.60;;;;;;5056363;28;20580;-69
2021/03/08 09:23:23;;;;;;;10.63;7.78;;;5.70;87.10;;;;;;5052825;28;20213;-70
2021/03/08 09:25:57;;;;;;;11.15;8.43;;;5.00;85.90;;;;;;5066021;28;20238;-71
2021/03/08 09:28:23;;;;;;;11.80;9.88;;;4.60;88.60;;;;;;5069000;28;20214;-70
2021/03/08 09:30:50;;;;;;;12.02;7.05;;;4.40;90.20;;;;;;5073344;28;20544;-69
2021/03/08 09:33:20;;;;;;;9.52;7.20;;;4.40;88.30;;;;;;5070880;28;20280;-71
2021/03/08 09:35:55;;;;;;;14.70;8.35;;;4.40;88.20;;;;;;5056018;28;20234;-71
2021/03/08 09:38:24;;;;;;;14.18;9.32;;;4.70;89.30;;;;;;5073602;28;20412;-71
2021/03/08 09:40:51;;;;;;;14.50;10.38;;;4.90;88.50;;;;;;5069810;28;20244;-69
2021/03/08 09:43:33;;;;;;;8.90;7.32;;;4.80;87.80;;;;;;5063559;28;20305;-71
2021/03/08 09:46:12;;;;;;;18.63;7.82;;;4.70;87.80;;;;;;5061034;28;20488;-70
2021/03/08 09:48:41;;;;;;;15.07;8.70;;;4.40;87.60;;;;;;5057074;28;20216;-70
2021/03/08 09:51:14;;;;;;;21.10;9.23;;;4.20;90.10;;;;;;5057154;28;20245;-70
2021/03/08 09:53:50;;;;;;;11.55;7.78;;;4.30;88.80;;;;;;5068267;28;20216;-69
2021/03/08 09:56:19;;;;;;;10.88;9.00;;;4.30;90.00;;;;;;5064160;28;20501;-69
2021/03/08 09:58:46;;;;;;;14.40;9.57;;;4.30;88.80;;;;;;5075973;28;20220;-69
2021/03/08 10:01:18;;;;;;;12.13;8.55;;;4.80;89.40;;;;;;5072063;28;20208;-68
2021/03/08 10:03:48;;;;;;;16.23;9.50;;;5.20;87.60;;;;;;5073247;28;20252;-72
2021/03/08 10:06:29;;;;;;;11.00;8.77;;;5.10;87.10;;;;;;5046504;28;20436;-70
2021/03/08 10:08:57;;;;;;;12.73;9.73;;;3.60;89.10;;;;;;5058239;28;20391;-69
2021/03/08 10:11:27;;;;;;;11.57;8.65;;;3.60;91.30;;;;;;5070228;28;20459;-69
2021/03/08 10:13:54;;;;;;;15.65;8.63;;;3.60;90.90;;;;;;5074767;28;20199;-68
2021/03/08 10:16:26;;;;;;;12.43;8.50;;;3.70;90.60;;;;;;5058403;28;20209;-70
2021/03/08 10:18:54;;;;;;;18.02;7.53;;;3.50;90.80;;;;;;5072826;28;20217;-69
2021/03/08 10:21:21;;;;;;;12.50;7.68;;;3.40;90.70;;;;;;5073084;28;20271;-68
2021/03/08 10:23:49;;;;;;;18.45;7.97;;;3.10;88.70;;;;;;5057728;28;20210;-68
2021/03/08 10:26:18;;;;;;;15.52;7.40;;;2.90;89.90;;;;;;5058116;28;20312;-68
2021/03/08 10:28:51;;;;;;;9.95;6.72;;;2.90;90.10;;;;;;5058516;28;20440;-68
2021/03/08 10:31:25;;;;;;;8.18;4.80;;;3.20;89.80;;;;;;5070349;28;20290;-69
2021/03/08 10:34:04;;;;;;;11.38;7.00;;;3.30;84.30;;;;;;5057461;28;20236;-70
2021/03/08 10:36:40;;;;;;;14.20;8.02;;;3.10;88.00;;;;;;5070395;28;20207;-68
2021/03/08 10:39:13;;;;;;;15.05;8.00;;;3.40;86.10;;;;;;5069782;28;20213;-69
2021/03/08 10:41:42;;;;;;;7.30;5.70;;;3.80;86.20;;;;;;5058179;28;20205;-69
2021/03/08 10:44:17;;;;;;;11.73;6.75;;;4.20;81.50;;;;;;5074170;28;20249;-70
2021/03/08 10:46:44;;;;;;;8.32;6.32;;;4.40;83.60;;;;;;5071067;28;20264;-69
2021/03/08 10:49:12;;;;;;;10.80;6.20;;;4.30;84.10;;;;;;5057642;28;20384;-68
2021/03/08 10:51:41;;;;;;;8.82;5.65;;;4.20;81.70;;;;;;5079617;28;20205;-69
2021/03/08 10:54:14;;;;;;;6.90;4.85;;;4.00;80.10;;;;;;5079568;28;20227;-69
2021/03/08 10:56:44;;;;;;;12.10;4.88;;;4.00;81.20;;;;;;5077927;28;20204;-70
2021/03/08 10:59:25;;;;;;;6.90;4.15;;;4.30;80.50;;;;;;5077255;28;20205;-70
2021/03/08 11:02:03;;;;;;;5.38;3.80;;;4.10;74.00;;;;;;5078644;28;20490;-69
2021/03/08 11:04:32;;;;;;;3.63;3.17;;;4.00;73.70;;;;;;5078995;28;20284;-69
2021/03/08 11:06:59;;;;;;;4.68;3.65;;;4.00;73.50;;;;;;5079055;28;20495;-68
2021/03/08 11:09:31;;;;;;;9.80;4.07;;;4.10;72.40;;;;;;5078089;28;20206;-68
2021/03/08 11:11:58;;;;;;;6.30;3.10;;;4.60;68.80;;;;;;5077049;28;20238;-69
2021/03/08 11:14:25;;;;;;;5.32;3.17;;;4.60;70.20;;;;;;5072695;28;20298;-68
2021/03/08 11:16:57;;;;;;;5.95;3.15;;;4.60;66.20;;;;;;5079216;28;20537;-68
2021/03/08 11:19:26;;;;;;;5.40;3.60;;;4.20;65.80;;;;;;5061136;28;20205;-68
2021/03/08 11:22:09;;;;;;;8.82;3.50;;;4.20;67.10;;;;;;5073764;28;20309;-68
2021/03/08 11:24:47;;;;;;;5.22;2.42;;;4.20;67.40;;;;;;5076470;28;20260;-68
2021/03/08 11:27:20;;;;;;;6.50;2.50;;;4.30;66.30;;;;;;5075645;28;20205;-67
2021/03/08 11:30:10;;;;;;;5.75;3.83;;;4.40;65.30;;;;;;5077476;28;20203;-68
2021/03/08 11:32:41;;;;;;;13.85;3.47;;;4.40;66.00;;;;;;5076430;28;20211;-70
2021/03/08 11:35:22;;;;;;;4.38;2.30;;;4.10;64.80;;;;;;5051135;28;20522;-68
2021/03/08 11:38:11;;;;;;;5.55;3.65;;;4.20;61.90;;;;;;5079325;28;20701;-69
2021/03/08 11:40:45;;;;;;;5.88;3.22;;;4.30;63.30;;;;;;5076285;28;20259;-70
2021/03/08 11:43:16;;;;;;;3.10;2.20;;;4.30;62.10;;;;;;5078750;28;20237;-69
2021/03/08 11:45:43;;;;;;;5.70;2.78;;;4.40;57.80;;;;;;5079343;28;20209;-70
2021/03/08 11:48:10;;;;;;;2.10;1.73;;;4.40;56.20;;;;;;5060737;28;20209;-66
2021/03/08 11:50:37;;;;;;;3.05;1.48;;;4.10;52.60;;;;;;5079199;28;20327;-67
2021/03/08 11:53:05;;;;;;;4.45;2.97;;;4.20;53.20;;;;;;5061063;28;20241;-68
2021/03/08 11:55:32;;;;;;;6.93;2.80;;;4.50;55.20;;;;;;5078703;28;20302;-67
2021/03/08 11:58:00;;;;;;;8.30;3.78;;;4.40;58.40;;;;;;5079206;28;20236;-67
2021/03/08 12:00:27;;;;;;;4.15;2.97;;;4.50;58.10;;;;;;5076009;28;20244;-67
2021/03/08 12:02:54;;;;;;;3.63;2.60;;;4.50;57.80;;;;;;5074519;28;20207;-68
2021/03/08 12:05:21;;;;;;;4.95;2.30;;;4.50;57.80;;;;;;5076842;28;20219;-67
2021/03/08 12:07:47;;;;;;;3.00;2.70;;;4.80;57.50;;;;;;5076375;28;20207;-67
2021/03/08 12:10:15;;;;;;;3.95;2.45;;;5.10;56.10;;;;;;5078365;28;20203;-67
2021/03/08 12:12:43;;;;;;;3.83;2.70;;;5.30;57.00;;;;;;5058026;28;20342;-67
2021/03/08 12:15:11;;;;;;;5.20;3.35;;;5.40;57.70;;;;;;5078705;28;20240;-66
2021/03/08 12:17:39;;;;;;;5.35;3.67;;;5.40;59.80;;;;;;5075851;28;20504;-68
2021/03/08 12:20:08;;;;;;;4.65;2.88;;;5.20;58.70;;;;;;5076669;28;20250;-68
2021/03/08 12:22:36;;;;;;;5.30;3.45;;;4.90;58.10;;;;;;5078639;28;20433;-66
2021/03/08 12:25:04;;;;;;;2.95;2.60;;;4.70;59.10;;;;;;5058941;28;20420;-67
2021/03/08 12:27:32;;;;;;;3.17;2.25;;;4.80;58.30;;;;;;5078272;28;20217;-66
2021/03/08 12:29:58;;;;;;;8.20;3.95;;;4.90;57.70;;;;;;5076378;28;20666;-68
2021/03/08 12:32:25;;;;;;;8.60;3.35;;;5.00;57.70;;;;;;5078398;28;20388;-67
2021/03/08 12:34:52;;;;;;;5.20;3.10;;;5.20;57.60;;;;;;5078112;28;20233;-66
2021/03/08 12:37:18;;;;;;;3.40;2.88;;;5.80;56.00;;;;;;5075870;28;20392;-66
2021/03/08 12:39:45;;;;;;;4.75;2.90;;;6.10;52.60;;;;;;5077659;28;20210;-67
2021/03/08 12:42:12;;;;;;;2.78;2.33;;;6.00;52.00;;;;;;5078305;28;20202;-68
2021/03/08 12:44:38;;;;;;;7.18;3.58;;;5.40;52.00;;;;;;5057675;28;20245;-66
2021/03/08 12:47:05;;;;;;;5.35;3.40;;;5.40;55.50;;;;;;5077049;28;20213;-67
2021/03/08 12:49:32;;;;;;;2.60;2.25;;;5.40;54.70;;;;;;5077847;28;20254;-65
2021/03/08 12:51:58;;;;;;;2.92;2.20;;;5.20;53.30;;;;;;5058884;28;20235;-66
2021/03/08 12:54:25;;;;;;;3.65;2.97;;;5.00;53.00;;;;;;5057757;28;20291;-67
2021/03/08 12:56:52;;;;;;;4.40;2.92;;;4.80;53.60;;;;;;5079120;28;20206;-66
2021/03/08 12:59:18;;;;;;;3.90;2.78;;;4.70;55.70;;;;;;5077211;28;20214;-66
2021/03/08 13:01:45;;;;;;;5.85;3.25;;;4.80;55.90;;;;;;5078254;28;20211;-68
2021/03/08 13:04:12;;;;;;;3.97;3.20;;;4.50;56.60;;;;;;5073156;28;20222;-67